Time;durP1;ratioP1;P1;durP2;ratioP2;P2;SDS_P1;SDS_P2;PMS_P1;PMS_P2;Temp;Humidity;BMP_temperature;BMP_pressure;BME280_temperature;BME280_humidity;BME280_pressure;Samples;Min_cycle;Max_cycle;Signal;HPM_P1;HPM_P2
2021/04/28 00:00:49;;;;;;;1.25;0.80;;;9.70;40.00;;;;;;5074784;28;20043;-72
2021/04/28 00:03:16;;;;;;;1.27;0.80;;;9.70;40.10;;;;;;5074138;28;20036;-73
2021/04/28 00:05:43;;;;;;;3.13;1.00;;;9.60;40.10;;;;;;5074482;28;20147;-72
2021/04/28 00:08:15;;;;;;;2.88;1.00;;;9.60;40.20;;;;;;5079926;28;20048;-72
2021/04/28 00:10:42;;;;;;;1.67;0.70;;;9.60;40.30;;;;;;5056519;28;20082;-72
2021/04/28 00:13:15;;;;;;;2.08;0.82;;;9.60;40.40;;;;;;5073979;28;20052;-72
2021/04/28 00:15:46;;;;;;;2.08;0.98;;;9.50;40.40;;;;;;5087949;28;20087;-72
2021/04/28 00:18:16;;;;;;;2.75;0.82;;;9.50;40.40;;;;;;5083665;28;20041;-72
2021/04/28 00:20:47;;;;;;;3.30;1.05;;;9.50;40.50;;;;;;5072386;28;20045;-72
2021/04/28 00:23:14;;;;;;;1.88;0.70;;;9.40;40.50;;;;;;5077095;28;20032;-72
2021/04/28 00:25:43;;;;;;;1.83;0.90;;;9.40;40.60;;;;;;5061305;28;20060;-72
2021/04/28 00:28:10;;;;;;;2.58;0.77;;;9.40;40.60;;;;;;5087833;28;20067;-72
2021/04/28 00:30:38;;;;;;;4.13;0.90;;;9.40;40.60;;;;;;5073329;28;20045;-72
2021/04/28 00:33:05;;;;;;;1.80;0.85;;;9.40;40.70;;;;;;5084098;28;20044;-72
2021/04/28 00:35:33;;;;;;;2.20;0.90;;;9.40;40.70;;;;;;5076312;28;20492;-72
2021/04/28 00:38:00;;;;;;;2.35;1.05;;;9.40;40.80;;;;;;5059274;28;20045;-72
2021/04/28 00:40:32;;;;;;;2.38;0.93;;;9.40;41.00;;;;;;5073811;28;20082;-72
2021/04/28 00:43:00;;;;;;;2.35;0.80;;;9.30;40.90;;;;;;5072477;28;20450;-72
2021/04/28 00:45:28;;;;;;;2.95;1.23;;;9.30;41.00;;;;;;5072830;28;20071;-72
2021/04/28 00:47:56;;;;;;;2.60;0.80;;;9.30;41.00;;;;;;5084778;28;20040;-72
2021/04/28 00:50:35;;;;;;;2.95;1.20;;;9.30;41.10;;;;;;5055696;28;20470;-72
2021/04/28 00:53:04;;;;;;;2.55;1.00;;;9.30;41.20;;;;;;5074734;28;20028;-72
2021/04/28 00:55:31;;;;;;;1.80;0.93;;;9.30;41.20;;;;;;5073961;28;20052;-72
2021/04/28 00:57:59;;;;;;;1.52;0.80;;;9.20;41.20;;;;;;5073658;28;20032;-73
2021/04/28 01:00:26;;;;;;;1.73;0.65;;;9.20;41.20;;;;;;5071795;28;20044;-72
2021/04/28 01:02:53;;;;;;;2.20;1.00;;;9.20;41.30;;;;;;5070177;28;20102;-72
2021/04/28 01:05:20;;;;;;;2.30;0.80;;;9.10;41.30;;;;;;5085613;28;20032;-72
2021/04/28 01:07:48;;;;;;;1.73;0.63;;;9.10;41.40;;;;;;5079648;28;20123;-72
2021/04/28 01:10:26;;;;;;;2.33;0.97;;;9.10;41.60;;;;;;5058313;28;20086;-72
2021/04/28 01:12:54;;;;;;;2.47;1.23;;;9.00;41.60;;;;;;5072478;28;20462;-72
2021/04/28 01:15:26;;;;;;;2.63;1.17;;;9.00;41.70;;;;;;5071886;28;20033;-72
2021/04/28 01:18:07;;;;;;;1.80;0.87;;;9.00;41.70;;;;;;5071741;28;20507;-72
2021/04/28 01:20:37;;;;;;;5.87;1.10;;;8.90;41.90;;;;;;5071864;28;20044;-72
2021/04/28 01:23:10;;;;;;;1.98;1.13;;;8.90;42.00;;;;;;5054894;28;20381;-72
2021/04/28 01:25:38;;;;;;;1.90;1.07;;;8.80;42.00;;;;;;5072815;28;20044;-72
2021/04/28 01:28:06;;;;;;;2.13;1.00;;;8.80;42.10;;;;;;5074908;28;20377;-73
2021/04/28 01:31:04;;;;;;;2.05;0.98;;;8.70;42.10;;;;;;5071276;28;20051;-72
2021/04/28 01:33:37;;;;;;;3.00;1.00;;;8.70;42.20;;;;;;5073860;28;20086;-72
2021/04/28 01:36:15;;;;;;;1.70;0.97;;;8.70;42.30;;;;;;5091499;28;20065;-72
2021/04/28 01:38:44;;;;;;;1.67;0.80;;;8.60;42.30;;;;;;5072444;28;20079;-72
2021/04/28 01:41:11;;;;;;;1.73;0.80;;;8.60;43.00;;;;;;5071438;28;20047;-72
2021/04/28 01:43:41;;;;;;;2.10;0.73;;;8.50;42.50;;;;;;5080174;28;20033;-72
2021/04/28 01:46:10;;;;;;;1.83;0.73;;;8.50;42.50;;;;;;5073424;28;20052;-72
2021/04/28 01:48:38;;;;;;;1.77;0.73;;;8.50;42.60;;;;;;5077552;28;20072;-72
2021/04/28 01:51:07;;;;;;;1.57;0.70;;;8.50;42.70;;;;;;5070995;28;20068;-70
2021/04/28 01:53:36;;;;;;;2.47;0.80;;;8.50;42.80;;;;;;5053473;28;20039;-70
2021/04/28 01:56:04;;;;;;;2.50;0.90;;;8.40;42.80;;;;;;5069919;28;20074;-70
2021/04/28 01:58:51;;;;;;;2.33;1.00;;;8.40;42.90;;;;;;5057227;28;20055;-70
2021/04/28 02:01:32;;;;;;;3.45;1.30;;;8.40;43.00;;;;;;5081674;28;20067;-70
2021/04/28 02:04:00;;;;;;;2.43;1.23;;;8.30;43.00;;;;;;5085185;28;20044;-70
2021/04/28 02:06:28;;;;;;;3.53;1.60;;;8.30;43.10;;;;;;5061523;28;20041;-70
2021/04/28 02:08:56;;;;;;;2.57;0.90;;;8.30;43.20;;;;;;5070396;28;20044;-70
2021/04/28 02:11:23;;;;;;;2.20;0.83;;;8.30;43.20;;;;;;5054316;28;20446;-70
2021/04/28 02:13:50;;;;;;;2.80;0.90;;;8.20;43.20;;;;;;5063487;28;20590;-70
2021/04/28 02:16:40;;;;;;;2.00;1.00;;;8.20;43.30;;;;;;5050147;28;20508;-70
2021/04/28 02:19:11;;;;;;;2.67;1.00;;;8.20;43.30;;;;;;5067402;28;20036;-70
2021/04/28 02:21:43;;;;;;;2.42;1.17;;;8.20;43.40;;;;;;5053868;28;20036;-70
2021/04/28 02:24:33;;;;;;;1.50;0.90;;;8.10;43.50;;;;;;5054724;28;20067;-70
2021/04/28 02:27:01;;;;;;;2.90;1.00;;;8.10;43.60;;;;;;5069275;28;20068;-70
2021/04/28 02:29:34;;;;;;;4.43;1.10;;;8.10;43.70;;;;;;5052890;28;20136;-70
2021/04/28 02:32:01;;;;;;;2.37;1.00;;;8.00;43.70;;;;;;5053538;28;20291;-70
2021/04/28 02:34:40;;;;;;;2.73;1.07;;;8.00;43.80;;;;;;5067065;28;20044;-69
2021/04/28 02:37:27;;;;;;;2.63;1.00;;;8.00;43.80;;;;;;5069685;28;20075;-69
2021/04/28 02:40:15;;;;;;;3.77;1.30;;;8.00;43.80;;;;;;5067563;28;20062;-68
2021/04/28 02:42:47;;;;;;;2.07;1.03;;;7.90;43.90;;;;;;5069347;28;20041;-69
2021/04/28 02:45:17;;;;;;;2.93;0.90;;;7.90;43.90;;;;;;5070797;28;20052;-69
2021/04/28 02:47:46;;;;;;;1.60;0.80;;;7.90;44.00;;;;;;5070529;28;20102;-69
2021/04/28 02:50:27;;;;;;;2.53;0.97;;;7.90;44.10;;;;;;5069372;28;20041;-69
2021/04/28 02:53:06;;;;;;;4.63;1.37;;;7.90;44.10;;;;;;5068981;28;20457;-70
2021/04/28 02:55:34;;;;;;;2.40;1.00;;;7.80;44.20;;;;;;5063365;28;20353;-70
2021/04/28 02:58:03;;;;;;;2.37;1.10;;;7.80;44.30;;;;;;5069188;28;20403;-72
2021/04/28 03:00:35;;;;;;;2.72;1.05;;;7.80;44.40;;;;;;5063340;28;20092;-71
2021/04/28 03:03:02;;;;;;;2.67;1.40;;;7.80;44.40;;;;;;5069172;28;20041;-71
2021/04/28 03:05:30;;;;;;;1.87;1.03;;;7.80;44.50;;;;;;5082272;28;20053;-70
2021/04/28 03:08:18;;;;;;;2.30;1.30;;;7.70;44.50;;;;;;5071503;28;20056;-71
2021/04/28 03:10:49;;;;;;;2.60;1.17;;;7.70;44.60;;;;;;5074527;28;20044;-71
2021/04/28 03:13:16;;;;;;;2.20;1.17;;;7.60;44.60;;;;;;5056985;28;20526;-71
2021/04/28 03:15:44;;;;;;;3.03;1.33;;;7.60;44.60;;;;;;5052553;28;20037;-71
2021/04/28 03:18:12;;;;;;;1.97;1.00;;;7.60;44.80;;;;;;5072871;28;20468;-72
2021/04/28 03:20:42;;;;;;;2.33;1.13;;;7.50;44.80;;;;;;5072581;28;20480;-70
2021/04/28 03:23:12;;;;;;;3.13;1.50;;;7.50;44.80;;;;;;5073107;28;20193;-70
2021/04/28 03:25:42;;;;;;;3.43;1.53;;;7.50;45.00;;;;;;5073131;28;20063;-70
2021/04/28 03:28:11;;;;;;;2.97;1.55;;;7.50;45.00;;;;;;5074081;28;20048;-70
2021/04/28 03:30:39;;;;;;;2.03;0.90;;;7.40;45.60;;;;;;5059511;28;20131;-70
2021/04/28 03:33:06;;;;;;;2.97;0.73;;;7.40;45.70;;;;;;5072826;28;20488;-70
2021/04/28 03:36:08;;;;;;;3.20;1.17;;;7.40;45.10;;;;;;5052396;28;20052;-70
2021/04/28 03:38:55;;;;;;;3.17;1.20;;;7.40;45.20;;;;;;5070550;28;20076;-70
2021/04/28 03:41:23;;;;;;;3.10;1.87;;;7.40;45.30;;;;;;5072490;28;20057;-70
2021/04/28 03:43:50;;;;;;;1.93;1.00;;;7.30;45.30;;;;;;5072124;28;20452;-70
2021/04/28 03:46:17;;;;;;;3.17;1.53;;;7.30;45.40;;;;;;5055295;28;20048;-70
2021/04/28 03:48:50;;;;;;;3.13;1.50;;;7.30;45.50;;;;;;5056839;28;20040;-70
2021/04/28 03:51:20;;;;;;;3.33;1.43;;;7.30;45.60;;;;;;5072848;28;20075;-72
2021/04/28 03:54:05;;;;;;;2.23;1.07;;;7.20;45.60;;;;;;5063320;28;20700;-72
2021/04/28 03:56:33;;;;;;;2.37;1.10;;;7.20;45.80;;;;;;5072497;28;20049;-71
2021/04/28 03:59:01;;;;;;;2.30;1.00;;;7.10;45.80;;;;;;5077862;28;20055;-72
2021/04/28 04:01:28;;;;;;;2.73;1.30;;;7.10;45.90;;;;;;5069136;28;20051;-72
2021/04/28 04:03:55;;;;;;;2.93;1.10;;;7.10;46.10;;;;;;5039664;28;20041;-71
2021/04/28 04:06:40;;;;;;;1.50;0.87;;;7.00;46.00;;;;;;5072628;28;20043;-71
2021/04/28 04:09:35;;;;;;;2.70;1.20;;;7.00;46.10;;;;;;5072967;28;20048;-72
2021/04/28 04:12:03;;;;;;;2.90;1.10;;;7.00;46.20;;;;;;5072272;28;20124;-72
2021/04/28 04:14:46;;;;;;;5.07;1.55;;;6.90;46.20;;;;;;5072716;28;20514;-72
2021/04/28 04:17:13;;;;;;;2.37;1.40;;;6.90;46.30;;;;;;5070467;28;20048;-72
2021/04/28 04:19:44;;;;;;;3.03;1.30;;;6.90;46.40;;;;;;5053632;28;20040;-72
2021/04/28 04:22:14;;;;;;;2.23;1.10;;;6.90;46.50;;;;;;5054321;28;20130;-69
2021/04/28 04:24:57;;;;;;;;;;;6.80;46.40;;;;;;5074172;28;20079;-70
2021/04/28 04:27:25;;;;;;;2.00;0.77;;;6.80;46.50;;;;;;5070978;28;20015;-70
2021/04/28 04:30:18;;;;;;;2.33;1.10;;;6.80;46.50;;;;;;5071094;28;20057;-70
2021/04/28 04:33:17;;;;;;;2.03;1.10;;;6.80;46.60;;;;;;5062939;28;20056;-70
2021/04/28 04:36:03;;;;;;;3.47;1.40;;;6.80;47.30;;;;;;5072795;28;20542;-70
2021/04/28 04:38:48;;;;;;;5.03;1.23;;;6.80;46.70;;;;;;5071492;28;20094;-70
2021/04/28 04:41:39;;;;;;;2.50;1.10;;;6.70;46.70;;;;;;5072182;28;20488;-69
2021/04/28 04:44:36;;;;;;;1.70;0.80;;;6.70;46.70;;;;;;5073235;28;20045;-69
2021/04/28 04:47:07;;;;;;;2.93;0.97;;;6.70;46.70;;;;;;5073008;28;20357;-69
2021/04/28 04:49:34;;;;;;;2.77;1.00;;;6.80;46.80;;;;;;5072042;28;20041;-70
2021/04/28 04:52:01;;;;;;;3.70;1.10;;;6.80;46.90;;;;;;5051506;28;20098;-70
2021/04/28 04:54:29;;;;;;;2.80;1.13;;;6.80;46.90;;;;;;5070304;28;20036;-69
2021/04/28 04:56:56;;;;;;;2.47;1.00;;;6.80;46.90;;;;;;5070970;28;20048;-69
2021/04/28 04:59:23;;;;;;;3.23;1.20;;;6.80;46.90;;;;;;5071774;28;20040;-70
2021/04/28 05:01:50;;;;;;;2.97;1.50;;;6.90;47.50;;;;;;5053820;28;20037;-70
2021/04/28 05:04:16;;;;;;;1.93;1.20;;;6.90;47.50;;;;;;5051969;28;20052;-69
2021/04/28 05:06:42;;;;;;;4.37;1.20;;;6.90;46.90;;;;;;5065438;28;20090;-70
2021/04/28 05:09:09;;;;;;;3.20;1.70;;;6.90;46.90;;;;;;5070972;28;20044;-70
2021/04/28 05:11:36;;;;;;;2.17;1.07;;;7.00;47.00;;;;;;5072456;28;20040;-70
2021/04/28 05:14:02;;;;;;;3.13;1.27;;;7.00;46.90;;;;;;5072261;28;20040;-69
2021/04/28 05:16:32;;;;;;;3.07;1.07;;;7.00;46.80;;;;;;5070680;28;20441;-70
2021/04/28 05:18:59;;;;;;;3.47;1.07;;;7.10;46.80;;;;;;5070417;28;20140;-70
2021/04/28 05:21:25;;;;;;;2.80;0.93;;;7.20;46.90;;;;;;5072340;28;20040;-70
2021/04/28 05:23:52;;;;;;;2.23;1.10;;;7.20;46.70;;;;;;5070800;28;20399;-71
2021/04/28 05:26:33;;;;;;;2.77;1.20;;;7.30;46.70;;;;;;5071514;28;20045;-72
2021/04/28 05:29:00;;;;;;;1.87;1.10;;;7.40;46.50;;;;;;5072529;28;20062;-72
2021/04/28 05:31:27;;;;;;;2.20;1.10;;;7.50;46.40;;;;;;5070096;28;20098;-71
2021/04/28 05:33:54;;;;;;;3.20;1.23;;;7.70;46.40;;;;;;5072263;28;20480;-72
2021/04/28 05:36:20;;;;;;;2.70;1.10;;;7.80;46.20;;;;;;5072208;28;20082;-72
2021/04/28 05:38:53;;;;;;;2.10;1.00;;;7.90;46.10;;;;;;5070578;28;20094;-72
2021/04/28 05:41:20;;;;;;;2.23;1.00;;;8.00;46.00;;;;;;5072043;28;20036;-72
2021/04/28 05:43:46;;;;;;;2.40;0.90;;;8.10;45.90;;;;;;5071734;28;20045;-73
2021/04/28 05:46:13;;;;;;;2.43;0.97;;;8.20;45.80;;;;;;5070802;28;20040;-72
2021/04/28 05:48:40;;;;;;;1.77;0.87;;;8.40;45.70;;;;;;5063962;28;20450;-73
2021/04/28 05:51:07;;;;;;;2.00;0.90;;;8.50;45.50;;;;;;5071440;28;20047;-72
2021/04/28 05:53:33;;;;;;;3.97;1.00;;;8.60;45.40;;;;;;5070769;28;20464;-72
2021/04/28 05:56:05;;;;;;;2.07;1.00;;;8.70;45.30;;;;;;5070426;28;20036;-72
2021/04/28 05:58:31;;;;;;;1.87;1.00;;;8.80;45.40;;;;;;5070228;28;20044;-72
2021/04/28 06:00:59;;;;;;;3.00;0.83;;;8.80;45.30;;;;;;5070543;28;20098;-70
2021/04/28 06:03:25;;;;;;;2.60;1.43;;;8.80;45.30;;;;;;5069697;28;20032;-70
2021/04/28 06:05:52;;;;;;;3.03;1.50;;;8.80;45.20;;;;;;5070057;28;20356;-70
2021/04/28 06:08:18;;;;;;;3.17;1.10;;;8.90;45.90;;;;;;5069620;28;20051;-70
2021/04/28 06:10:45;;;;;;;3.93;1.50;;;9.00;45.20;;;;;;5063769;28;20048;-70
2021/04/28 06:13:12;;;;;;;3.07;1.03;;;9.10;45.10;;;;;;5071286;28;20043;-70
2021/04/28 06:15:39;;;;;;;2.77;1.10;;;9.10;45.00;;;;;;5070957;28;20044;-70
2021/04/28 06:18:06;;;;;;;3.17;1.27;;;9.20;44.90;;;;;;5036872;28;20044;-72
2021/04/28 06:20:34;;;;;;;4.73;1.57;;;9.30;44.80;;;;;;5071185;28;20060;-72
2021/04/28 06:23:02;;;;;;;3.23;1.53;;;9.50;44.70;;;;;;5071416;28;20036;-72
2021/04/28 06:25:30;;;;;;;4.17;0.97;;;9.60;44.50;;;;;;5071797;28;20045;-72
2021/04/28 06:27:57;;;;;;;1.80;1.10;;;9.70;44.40;;;;;;5071993;28;20470;-72
2021/04/28 06:30:27;;;;;;;5.40;1.43;;;9.90;44.20;;;;;;5069214;28;20045;-72
2021/04/28 06:32:55;;;;;;;2.87;1.70;;;10.00;44.00;;;;;;5070812;28;20424;-72
2021/04/28 06:35:22;;;;;;;2.53;1.30;;;10.10;43.90;;;;;;5050702;28;20045;-72
2021/04/28 06:37:48;;;;;;;2.28;0.98;;;10.10;43.80;;;;;;5069326;28;20070;-70
2021/04/28 06:40:15;;;;;;;2.10;1.10;;;10.20;43.80;;;;;;5036219;28;20032;-70
2021/04/28 06:42:42;;;;;;;3.33;1.03;;;10.20;43.80;;;;;;5069991;28;20048;-70
2021/04/28 06:45:09;;;;;;;2.65;1.23;;;10.20;43.70;;;;;;5069219;28;20037;-70
2021/04/28 06:47:35;;;;;;;1.75;0.80;;;10.30;43.70;;;;;;5069554;28;20549;-70
2021/04/28 06:50:04;;;;;;;2.97;1.33;;;10.30;43.70;;;;;;5070855;28;20777;-70
2021/04/28 06:52:30;;;;;;;2.22;1.00;;;10.30;43.60;;;;;;5068968;28;20045;-71
2021/04/28 06:54:57;;;;;;;2.28;0.90;;;10.40;43.70;;;;;;5055930;28;20045;-72
2021/04/28 06:57:44;;;;;;;2.67;1.02;;;10.40;43.70;;;;;;5069410;28;20029;-73
2021/04/28 07:00:11;;;;;;;2.63;1.00;;;10.40;43.60;;;;;;5070355;28;20555;-70
2021/04/28 07:02:37;;;;;;;1.27;0.95;;;10.40;43.50;;;;;;5068951;28;20047;-70
2021/04/28 07:05:05;;;;;;;2.03;1.02;;;10.50;43.50;;;;;;5046539;28;20072;-72
2021/04/28 07:07:32;;;;;;;2.20;0.90;;;10.60;43.50;;;;;;5069484;28;20072;-70
2021/04/28 07:09:58;;;;;;;1.60;1.00;;;10.70;43.40;;;;;;5068862;28;20032;-70
2021/04/28 07:12:25;;;;;;;3.78;1.65;;;10.80;43.90;;;;;;5052716;28;20519;-70
2021/04/28 07:14:52;;;;;;;2.28;1.20;;;11.00;43.20;;;;;;5070889;28;20040;-70
2021/04/28 07:17:19;;;;;;;2.20;1.10;;;11.10;43.10;;;;;;5049690;28;20052;-71
2021/04/28 07:19:46;;;;;;;3.03;1.08;;;11.20;43.00;;;;;;5059784;28;20036;-71
2021/04/28 07:22:12;;;;;;;3.90;1.60;;;11.30;42.80;;;;;;5069597;28;20097;-71
2021/04/28 07:24:41;;;;;;;3.13;1.75;;;11.40;42.70;;;;;;5070853;28;20041;-71
2021/04/28 07:27:08;;;;;;;2.25;1.20;;;11.50;42.60;;;;;;5072998;28;20720;-70
2021/04/28 07:29:34;;;;;;;2.92;1.30;;;11.60;42.50;;;;;;5069392;28;20044;-70
2021/04/28 07:32:03;;;;;;;3.05;1.20;;;11.70;42.50;;;;;;5048992;28;20056;-70
2021/04/28 07:34:31;;;;;;;3.10;1.10;;;11.70;42.40;;;;;;5070065;28;20041;-70
2021/04/28 07:36:58;;;;;;;2.42;1.20;;;11.80;42.40;;;;;;5071726;28;20055;-71
2021/04/28 07:39:24;;;;;;;2.65;1.15;;;12.00;42.40;;;;;;5070395;28;20068;-70
2021/04/28 07:41:51;;;;;;;2.20;1.20;;;12.00;42.30;;;;;;5069826;28;20454;-71
2021/04/28 07:44:18;;;;;;;2.40;1.00;;;12.00;42.30;;;;;;5069694;28;20044;-70
2021/04/28 07:46:46;;;;;;;3.10;1.23;;;12.10;42.30;;;;;;5069713;28;20090;-70
2021/04/28 07:49:13;;;;;;;2.15;0.90;;;12.20;42.30;;;;;;5070691;28;20051;-71
2021/04/28 07:51:40;;;;;;;2.75;1.23;;;12.20;42.20;;;;;;5070001;28;20036;-71
2021/04/28 07:54:21;;;;;;;2.88;1.40;;;12.30;42.20;;;;;;5071750;28;20106;-70
2021/04/28 07:56:48;;;;;;;2.45;1.10;;;12.30;42.20;;;;;;5072158;28;20499;-71
2021/04/28 07:59:15;;;;;;;3.10;1.15;;;12.40;42.20;;;;;;5070087;28;20036;-71
2021/04/28 08:01:42;;;;;;;2.80;1.30;;;12.40;42.20;;;;;;5072781;28;20040;-73
2021/04/28 08:04:08;;;;;;;2.50;0.85;;;12.50;42.20;;;;;;5056050;28;20049;-73
2021/04/28 08:06:35;;;;;;;2.10;1.00;;;12.50;42.10;;;;;;5074571;28;20036;-74
2021/04/28 08:09:04;;;;;;;1.10;0.60;;;12.60;42.10;;;;;;5074814;28;20139;-74
2021/04/28 08:11:30;;;;;;;3.30;1.20;;;12.70;42.00;;;;;;5052616;28;20400;-73
2021/04/28 08:13:57;;;;;;;2.42;1.02;;;12.90;42.00;;;;;;5073109;28;20118;-74
2021/04/28 08:16:24;;;;;;;2.30;1.00;;;13.00;41.80;;;;;;5074479;28;20037;-73
2021/04/28 08:18:50;;;;;;;1.52;0.80;;;13.10;41.80;;;;;;5072955;28;20059;-73
2021/04/28 08:21:18;;;;;;;2.90;1.13;;;13.30;41.70;;;;;;5073226;28;20045;-71
2021/04/28 08:23:45;;;;;;;1.55;0.88;;;13.50;41.60;;;;;;5072525;28;20075;-70
2021/04/28 08:26:13;;;;;;;1.85;0.70;;;13.70;41.50;;;;;;5072214;28;20040;-71
2021/04/28 08:28:42;;;;;;;2.05;0.95;;;13.80;41.30;;;;;;5073486;28;20480;-71
2021/04/28 08:31:10;;;;;;;4.50;0.98;;;14.00;41.30;;;;;;5055124;28;20515;-71
2021/04/28 08:33:39;;;;;;;2.78;1.25;;;14.10;41.20;;;;;;5072686;28;20061;-72
2021/04/28 08:36:06;;;;;;;2.25;1.20;;;14.20;41.10;;;;;;5071706;28;20098;-72
2021/04/28 08:38:36;;;;;;;2.92;1.02;;;14.30;41.00;;;;;;5072481;28;20045;-72
2021/04/28 08:41:05;;;;;;;2.17;1.25;;;14.30;41.00;;;;;;5078701;28;20045;-72
2021/04/28 08:43:32;;;;;;;2.70;0.80;;;14.40;41.00;;;;;;5071764;28;20047;-71
2021/04/28 08:46:01;;;;;;;2.70;1.25;;;14.40;40.90;;;;;;5073040;28;20072;-71
2021/04/28 08:48:31;;;;;;;2.10;1.17;;;14.50;40.90;;;;;;5071742;28;20078;-72
2021/04/28 08:51:02;;;;;;;2.58;1.23;;;14.60;40.80;;;;;;5071890;28;20117;-71
2021/04/28 08:53:30;;;;;;;1.75;1.08;;;14.60;40.80;;;;;;5038963;28;20045;-71
2021/04/28 08:55:57;;;;;;;2.05;1.00;;;14.70;40.80;;;;;;5072656;28;20040;-71
2021/04/28 08:58:27;;;;;;;3.28;1.50;;;14.80;40.80;;;;;;5071134;28;20071;-71
2021/04/28 09:00:53;;;;;;;5.07;1.67;;;14.90;40.70;;;;;;5055018;28;20040;-71
2021/04/28 09:03:20;;;;;;;2.58;1.42;;;14.90;40.60;;;;;;5053151;28;20075;-71
2021/04/28 09:05:47;;;;;;;2.80;1.80;;;15.00;40.60;;;;;;5072315;28;20087;-73
2021/04/28 09:08:14;;;;;;;2.33;1.35;;;15.10;40.50;;;;;;5072588;28;20048;-72
2021/04/28 09:10:42;;;;;;;2.97;1.55;;;15.10;40.50;;;;;;5071461;28;20033;-71
2021/04/28 09:13:17;;;;;;;4.28;1.48;;;15.20;41.00;;;;;;5053533;28;20115;-71
2021/04/28 09:15:48;;;;;;;2.53;1.23;;;15.30;40.40;;;;;;5071258;28;20086;-71
2021/04/28 09:18:32;;;;;;;1.80;1.00;;;15.30;40.30;;;;;;5064689;28;20149;-71
2021/04/28 09:21:11;;;;;;;1.67;0.80;;;15.40;40.20;;;;;;5060615;28;20048;-72
2021/04/28 09:24:24;;;;;;;2.42;1.30;;;15.50;40.20;;;;;;5070207;28;20044;-71
2021/04/28 09:27:31;;;;;;;3.97;1.60;;;15.60;40.00;;;;;;5072962;28;20125;-72
2021/04/28 09:30:26;;;;;;;3.75;2.13;;;15.70;39.80;;;;;;5069333;28;20052;-71
2021/04/28 09:33:02;;;;;;;3.58;1.65;;;15.80;39.80;;;;;;5069653;28;20049;-72
2021/04/28 09:35:29;;;;;;;2.55;1.75;;;15.80;39.80;;;;;;5071007;28;20044;-71
2021/04/28 09:38:01;;;;;;;3.00;1.70;;;15.90;39.70;;;;;;5068527;28;20584;-76
2021/04/28 09:40:46;;;;;;;4.70;1.95;;;16.10;39.70;;;;;;5071239;28;20085;-72
2021/04/28 09:43:13;;;;;;;3.78;1.85;;;16.30;39.40;;;;;;5071715;28;20105;-74
2021/04/28 09:45:44;;;;;;;5.30;2.25;;;16.50;39.20;;;;;;5071280;28;20044;-74
2021/04/28 09:48:17;;;;;;;4.03;2.00;;;16.70;39.00;;;;;;5070761;28;20045;-73
2021/04/28 09:50:46;;;;;;;4.55;2.28;;;16.70;38.80;;;;;;5071056;28;20143;-73
2021/04/28 09:53:25;;;;;;;3.67;2.20;;;16.80;38.80;;;;;;5071668;28;20131;-73
2021/04/28 09:55:52;;;;;;;4.10;2.40;;;16.90;38.70;;;;;;5072243;28;20090;-73
2021/04/28 09:58:45;;;;;;;4.00;2.05;;;16.80;38.60;;;;;;5070114;28;20041;-72
2021/04/28 10:01:34;;;;;;;3.70;2.10;;;16.80;38.70;;;;;;5070372;28;20036;-72
2021/04/28 10:04:02;;;;;;;3.67;1.88;;;16.80;38.70;;;;;;5075261;28;20452;-71
2021/04/28 10:06:47;;;;;;;3.45;2.08;;;16.80;38.70;;;;;;5069125;28;20059;-72
2021/04/28 10:09:30;;;;;;;3.40;1.88;;;17.00;38.60;;;;;;5050608;28;20855;-73
2021/04/28 10:11:58;;;;;;;4.40;2.28;;;17.10;38.60;;;;;;5070572;28;20442;-72
2021/04/28 10:14:26;;;;;;;5.40;2.45;;;17.30;38.50;;;;;;5049950;28;20441;-72
2021/04/28 10:16:55;;;;;;;5.15;2.90;;;17.50;38.20;;;;;;5063537;28;20045;-73
2021/04/28 10:19:23;;;;;;;4.60;2.78;;;17.60;38.10;;;;;;5058580;28;20046;-73
2021/04/28 10:21:52;;;;;;;3.85;2.30;;;17.60;37.90;;;;;;5052370;28;20037;-74
2021/04/28 10:24:20;;;;;;;3.63;2.03;;;17.60;37.90;;;;;;5064303;28;20052;-73
2021/04/28 10:26:48;;;;;;;4.53;2.75;;;17.70;37.90;;;;;;5062881;28;20397;-74
2021/04/28 10:29:20;;;;;;;3.63;1.63;;;17.80;37.60;;;;;;5064963;28;20123;-73
2021/04/28 10:31:49;;;;;;;4.15;2.53;;;18.10;37.30;;;;;;5062329;28;20369;-73
2021/04/28 10:34:37;;;;;;;3.90;2.42;;;18.20;37.10;;;;;;5067679;28;20066;-74
2021/04/28 10:37:06;;;;;;;4.72;2.58;;;18.20;37.10;;;;;;5070968;28;20048;-73
2021/04/28 10:39:34;;;;;;;5.13;2.67;;;18.20;37.10;;;;;;5053470;28;20048;-73
2021/04/28 10:42:01;;;;;;;4.00;3.13;;;18.20;37.00;;;;;;5069704;28;20399;-73
2021/04/28 10:44:38;;;;;;;5.63;3.10;;;18.50;36.80;;;;;;5069596;28;20040;-73
2021/04/28 10:47:14;;;;;;;5.45;3.15;;;18.70;36.50;;;;;;5057447;28;20563;-74
2021/04/28 10:50:09;;;;;;;4.68;2.75;;;19.10;36.10;;;;;;5069919;28;20076;-73
2021/04/28 10:52:40;;;;;;;3.42;2.22;;;19.30;35.80;;;;;;5070073;28;20036;-74
2021/04/28 10:55:26;;;;;;;5.18;2.72;;;19.30;35.80;;;;;;5068406;28;20068;-74
2021/04/28 10:57:53;;;;;;;5.05;2.22;;;19.10;35.80;;;;;;5069437;28;20473;-74
2021/04/28 11:00:19;;;;;;;4.00;2.65;;;19.00;36.00;;;;;;5069476;28;20115;-73
2021/04/28 11:02:47;;;;;;;4.75;2.40;;;19.00;35.90;;;;;;5061292;28;20041;-72
2021/04/28 11:05:28;;;;;;;5.47;2.53;;;19.10;36.00;;;;;;5063425;28;20482;-72
2021/04/28 11:08:00;;;;;;;4.63;2.65;;;19.30;35.80;;;;;;5065021;28;20052;-73
2021/04/28 11:10:36;;;;;;;4.78;3.35;;;19.50;35.50;;;;;;5070565;28;20048;-72
2021/04/28 11:13:07;;;;;;;7.38;3.28;;;19.50;35.20;;;;;;5070899;28;20545;-72
2021/04/28 11:15:54;;;;;;;4.40;2.88;;;19.40;35.30;;;;;;5069484;28;20466;-72
2021/04/28 11:18:35;;;;;;;7.15;3.97;;;19.40;35.50;;;;;;5061349;28;20553;-72
2021/04/28 11:21:18;;;;;;;4.50;3.25;;;19.40;35.40;;;;;;5065618;28;20082;-74
2021/04/28 11:24:17;;;;;;;5.30;3.10;;;19.80;35.30;;;;;;5089068;28;20040;-73
2021/04/28 11:26:49;;;;;;;5.55;3.45;;;20.20;34.70;;;;;;5024179;28;20396;-73
2021/04/28 11:29:17;;;;;;;5.00;3.47;;;20.10;34.60;;;;;;5070752;28;20094;-72
2021/04/28 11:31:49;;;;;;;6.68;3.33;;;19.80;34.70;;;;;;5073679;28;20033;-73
2021/04/28 11:34:17;;;;;;;6.32;3.22;;;19.60;35.10;;;;;;5074615;28;20044;-75
2021/04/28 11:36:56;;;;;;;5.93;3.15;;;19.50;35.30;;;;;;5074749;28;20379;-74
2021/04/28 11:39:37;;;;;;;6.45;3.50;;;19.70;35.30;;;;;;5073378;28;20045;-75
2021/04/28 11:42:09;;;;;;;6.18;3.90;;;20.10;34.70;;;;;;5071477;28;20055;-75
2021/04/28 11:44:45;;;;;;;5.10;3.70;;;20.30;34.50;;;;;;5066188;28;20454;-73
2021/04/28 11:47:16;;;;;;;6.25;3.65;;;20.70;34.20;;;;;;5071424;28;20036;-73
2021/04/28 11:49:54;;;;;;;5.97;2.92;;;20.60;34.60;;;;;;5069331;28;20048;-73
2021/04/28 11:52:25;;;;;;;5.80;3.85;;;20.60;34.20;;;;;;5072243;28;20039;-74
2021/04/28 11:54:54;;;;;;;4.53;2.75;;;20.80;34.20;;;;;;5069008;28;20564;-75
2021/04/28 11:57:32;;;;;;;3.72;2.42;;;21.20;34.00;;;;;;5069231;28;20549;-75
2021/04/28 12:00:04;;;;;;;5.07;3.35;;;21.50;33.70;;;;;;5056101;28;20233;-75
2021/04/28 12:02:32;;;;;;;5.13;3.05;;;21.40;33.70;;;;;;5070313;28;20491;-73
2021/04/28 12:04:59;;;;;;;4.90;3.13;;;21.30;33.90;;;;;;5068494;28;20628;-75
2021/04/28 12:07:26;;;;;;;6.82;3.83;;;21.40;34.00;;;;;;5068654;28;20093;-75
2021/04/28 12:09:53;;;;;;;6.15;4.40;;;21.40;33.90;;;;;;5053806;28;20033;-76
2021/04/28 12:12:30;;;;;;;5.85;3.97;;;21.40;33.60;;;;;;5072284;28;20090;-76
2021/04/28 12:15:06;;;;;;;6.07;4.53;;;21.10;33.80;;;;;;5068460;28;20060;-76
2021/04/28 12:17:38;;;;;;;5.75;4.15;;;20.70;33.80;;;;;;5069009;28;20487;-72
2021/04/28 12:20:12;;;;;;;6.25;3.88;;;20.70;34.70;;;;;;5067376;28;20096;-72
2021/04/28 12:22:45;;;;;;;6.40;4.10;;;21.10;34.10;;;;;;5060187;28;20086;-72
2021/04/28 12:25:14;;;;;;;6.50;3.70;;;21.40;33.80;;;;;;5065674;28;20059;-72
2021/04/28 12:27:43;;;;;;;7.50;3.90;;;21.70;33.60;;;;;;5069336;28;20048;-75
2021/04/28 12:30:16;;;;;;;10.13;4.75;;;21.90;33.30;;;;;;5068087;28;20478;-74
2021/04/28 12:32:54;;;;;;;7.40;4.10;;;22.00;33.10;;;;;;5069715;28;20056;-75
2021/04/28 12:35:23;;;;;;;6.65;4.25;;;22.00;33.20;;;;;;5066112;28;20048;-73
2021/04/28 12:38:12;;;;;;;7.97;3.95;;;21.80;33.20;;;;;;5071022;28;20403;-73
2021/04/28 12:40:53;;;;;;;14.90;4.05;;;21.40;33.50;;;;;;5072013;28;20124;-72
2021/04/28 12:43:24;;;;;;;4.97;3.55;;;21.20;33.80;;;;;;5070889;28;20503;-73
2021/04/28 12:46:04;;;;;;;6.80;3.60;;;21.10;33.70;;;;;;5073149;28;20060;-74
2021/04/28 12:48:55;;;;;;;5.05;3.55;;;20.90;33.80;;;;;;5073516;28;20058;-74
2021/04/28 12:51:22;;;;;;;6.20;3.80;;;21.20;33.90;;;;;;5055777;28;20051;-75
2021/04/28 12:53:49;;;;;;;6.15;3.58;;;21.20;33.80;;;;;;5063458;28;20098;-74
2021/04/28 12:56:17;;;;;;;5.93;3.58;;;21.20;33.80;;;;;;5067222;28;20033;-75
2021/04/28 12:58:49;;;;;;;7.07;4.38;;;21.10;33.80;;;;;;5035067;28;20040;-75
2021/04/28 13:01:17;;;;;;;5.35;3.55;;;21.10;33.60;;;;;;5066333;28;20047;-75
2021/04/28 13:03:45;;;;;;;6.10;3.58;;;21.00;33.70;;;;;;5070573;28;20037;-75
2021/04/28 13:06:25;;;;;;;5.57;3.60;;;20.90;34.40;;;;;;5070463;28;20625;-75
2021/04/28 13:08:53;;;;;;;6.85;3.95;;;20.90;33.80;;;;;;5070083;28;20048;-75
2021/04/28 13:11:32;;;;;;;5.15;3.53;;;20.90;33.80;;;;;;5070355;28;20054;-74
2021/04/28 13:14:00;;;;;;;5.30;2.97;;;21.00;33.60;;;;;;5070323;28;20048;-75
2021/04/28 13:16:42;;;;;;;6.10;3.55;;;21.10;33.70;;;;;;5050362;28;20119;-74